Time,TemperatureF,DewpointF,PressureIn,WindDirection,WindDirectionDegrees,WindSpeedMPH,WindSpeedGustMPH,Humidity,HourlyPrecipIn,Conditions,Clouds,dailyrainin,SoftwareType,DateUTC
2013-03-07 00:00:00,31.6,27.6,30.25,West,280,0.0,2.0,85,0.00,,---,0.07,VWS V14.01,2013-03-07 05:00:00,
2013-03-07 00:01:00,31.6,27.6,30.25,West,280,0.0,2.0,85,0.00,,---,0.07,VWS V14.01,2013-03-07 05:01:00,
2013-03-07 00:07:00,31.7,27.7,30.25,WNW,290,0.0,1.0,85,0.00,,---,0.00,VWS V14.01,2013-03-07 05:07:00,
2013-03-07 00:12:00,31.8,27.8,30.25,WNW,293,0.0,2.0,85,0.00,,---,0.00,VWS V14.01,2013-03-07 05:12:00,
2013-03-07 00:17:00,31.8,27.8,30.25,West,273,0.0,2.0,85,0.00,,---,0.00,VWS V14.01,2013-03-07 05:17:00,
2013-03-07 00:22:00,31.8,27.8,30.24,NW,307,0.0,3.0,85,0.00,,---,0.00,VWS V14.01,2013-03-07 05:22:00,
2013-03-07 00:27:00,31.9,27.9,30.25,NW,308,1.0,3.0,85,0.00,,---,0.00,VWS V14.01,2013-03-07 05:27:00,
2013-03-07 00:30:00,31.9,27.9,30.25,WNW,291,1.0,4.0,85,0.00,,---,0.00,VWS V14.01,2013-03-07 05:30:00,
2013-03-07 00:32:00,31.9,27.9,30.24,West,273,0.0,3.0,85,0.00,,---,0.00,VWS V14.01,2013-03-07 05:32:00,
2013-03-07 00:37:00,31.9,27.9,30.24,West,276,1.0,2.0,85,0.00,,---,0.00,VWS V14.01,2013-03-07 05:37:00,
2013-03-07 00:42:00,31.9,27.9,30.24,West,278,0.0,2.0,85,0.00,,---,0.00,VWS V14.01,2013-03-07 05:42:00,
2013-03-07 00:47:00,31.9,27.9,30.24,WSW,255,1.0,2.0,85,0.00,,---,0.00,VWS V14.01,2013-03-07 05:47:00,
2013-03-07 00:52:00,31.9,27.9,30.24,NW,308,0.0,2.0,85,0.00,,---,0.00,VWS V14.01,2013-03-07 05:52:00,
2013-03-07 00:57:00,31.9,27.9,30.24,WSW,253,1.0,2.0,85,0.00,,---,0.00,VWS V14.01,2013-03-07 05:57:00,
2013-03-07 01:00:00,31.7,28.0,30.26,WNW,283,1.0,2.0,86,0.00,,---,0.00,VWS V14.01,2013-03-07 06:00:00,
2013-03-07 01:02:00,31.9,27.9,30.24,WSW,247,1.0,3.0,85,0.00,,---,0.00,VWS V14.01,2013-03-07 06:02:00,
2013-03-07 01:07:00,31.9,27.9,30.24,WNW,282,1.0,3.0,85,0.00,,---,0.00,VWS V14.01,2013-03-07 06:07:00,
2013-03-07 01:12:00,32.0,28.0,30.24,SW,215,0.0,3.0,85,0.00,,---,0.00,VWS V14.01,2013-03-07 06:12:00,
2013-03-07 01:17:00,32.0,28.0,30.25,WSW,246,1.0,4.0,85,0.00,,---,0.00,VWS V14.01,2013-03-07 06:17:00,
2013-03-07 01:22:00,32.1,28.1,30.25,WSW,238,0.0,4.0,85,0.00,,---,0.00,VWS V14.01,2013-03-07 06:22:00,
2013-03-07 01:27:00,32.0,28.0,30.25,SW,235,0.0,4.0,85,0.00,,---,0.00,VWS V14.01,2013-03-07 06:27:00,
2013-03-07 01:30:00,31.5,27.8,30.25,West,263,0.0,2.0,86,0.00,,---,0.00,VWS V14.01,2013-03-07 06:30:00,
2013-03-07 01:32:00,32.0,28.0,30.25,WNW,291,0.0,1.0,85,0.00,,---,0.00,VWS V14.01,2013-03-07 06:32:00,
2013-03-07 01:37:00,31.9,27.9,30.25,WNW,291,0.0,1.0,85,0.00,,---,0.00,VWS V14.01,2013-03-07 06:37:00,
2013-03-07 01:42:00,31.9,27.9,30.25,NW,310,1.0,2.0,85,0.00,,---,0.00,VWS V14.01,2013-03-07 06:42:00,
2013-03-07 01:47:00,31.9,27.9,30.26,WNW,283,0.0,2.0,85,0.00,,---,0.00,VWS V14.01,2013-03-07 06:47:00,
2013-03-07 01:52:00,31.8,27.8,30.26,WNW,282,0.0,2.0,85,0.00,,---,0.00,VWS V14.01,2013-03-07 06:52:00,
2013-03-07 01:57:00,31.8,27.8,30.26,WNW,283,0.0,2.0,85,0.00,,---,0.00,VWS V14.01,2013-03-07 06:57:00,
2013-03-07 02:00:00,31.4,28.0,30.26,SW,225,0.0,1.0,87,0.00,,---,0.00,VWS V14.01,2013-03-07 07:00:00,
2013-03-07 02:02:00,31.7,28.0,30.26,WNW,283,0.0,1.0,86,0.00,,---,0.00,VWS V14.01,2013-03-07 07:02:00,
2013-03-07 02:07:00,31.7,28.0,30.25,West,259,0.0,1.0,86,0.00,,---,0.00,VWS V14.01,2013-03-07 07:07:00,
2013-03-07 02:12:00,31.6,27.9,30.25,West,277,0.0,2.0,86,0.00,,---,0.00,VWS V14.01,2013-03-07 07:12:00,
2013-03-07 02:17:00,31.6,27.9,30.25,NW,308,0.0,2.0,86,0.00,,---,0.00,VWS V14.01,2013-03-07 07:17:00,
2013-03-07 02:22:00,31.6,27.9,30.25,NW,309,0.0,2.0,86,0.00,,---,0.00,VWS V14.01,2013-03-07 07:22:00,
2013-03-07 02:27:00,31.6,27.9,30.25,WNW,285,0.0,2.0,86,0.00,,---,0.00,VWS V14.01,2013-03-07 07:27:00,
2013-03-07 02:30:00,31.2,28.1,30.26,West,269,1.0,2.0,88,0.00,,---,0.00,VWS V14.01,2013-03-07 07:30:00,
2013-03-07 02:32:00,31.5,27.8,30.25,West,263,0.0,0.0,86,0.00,,---,0.00,VWS V14.01,2013-03-07 07:32:00,
2013-03-07 02:37:00,31.4,27.7,30.25,West,263,1.0,1.0,86,0.00,,---,0.00,VWS V14.01,2013-03-07 07:37:00,
2013-03-07 02:42:00,31.4,28.0,30.25,WNW,294,0.0,1.0,87,0.00,,---,0.00,VWS V14.01,2013-03-07 07:42:00,
2013-03-07 02:47:00,31.5,28.1,30.25,SW,225,0.0,1.0,87,0.00,,---,0.00,VWS V14.01,2013-03-07 07:47:00,
2013-03-07 02:52:00,31.4,28.0,30.25,SW,225,0.0,1.0,87,0.00,,---,0.00,VWS V14.01,2013-03-07 07:52:00,
2013-03-07 02:57:00,31.4,28.0,30.25,SW,226,0.0,1.0,87,0.00,,---,0.00,VWS V14.01,2013-03-07 07:57:00,
2013-03-07 03:00:00,31.0,28.1,30.26,SW,226,0.0,2.0,89,0.00,,---,0.00,VWS V14.01,2013-03-07 08:00:00,
2013-03-07 03:02:00,31.4,28.0,30.26,SW,225,0.0,0.0,87,0.00,,---,0.00,VWS V14.01,2013-03-07 08:02:00,
2013-03-07 03:08:00,31.3,27.9,30.26,SW,225,0.0,0.0,87,0.00,,---,0.00,VWS V14.01,2013-03-07 08:08:00,
2013-03-07 03:13:00,31.2,27.8,30.25,SW,226,0.0,1.0,87,0.00,,---,0.00,VWS V14.01,2013-03-07 08:13:00,
2013-03-07 03:18:00,31.2,28.1,30.26,SW,236,0.0,1.0,88,0.00,,---,0.00,VWS V14.01,2013-03-07 08:18:00,
2013-03-07 03:23:00,31.2,28.1,30.26,SW,225,1.0,2.0,88,0.00,,---,0.00,VWS V14.01,2013-03-07 08:23:00,
2013-03-07 03:28:00,31.2,28.1,30.26,SW,232,0.0,2.0,88,0.00,,---,0.00,VWS V14.01,2013-03-07 08:28:00,
2013-03-07 03:30:00,31.0,28.4,30.28,West,263,0.0,3.0,90,0.00,,---,0.00,VWS V14.01,2013-03-07 08:30:00,
2013-03-07 03:33:00,31.2,28.1,30.26,West,266,0.0,1.0,88,0.00,,---,0.00,VWS V14.01,2013-03-07 08:33:00,
2013-03-07 03:38:00,31.2,28.1,30.26,West,262,0.0,1.0,88,0.00,,---,0.00,VWS V14.01,2013-03-07 08:38:00,
2013-03-07 03:43:00,31.1,28.0,30.26,WSW,247,0.0,1.0,88,0.00,,---,0.00,VWS V14.01,2013-03-07 08:43:00,
2013-03-07 03:48:00,31.1,28.0,30.26,West,273,0.0,2.0,88,0.00,,---,0.00,VWS V14.01,2013-03-07 08:48:00,
2013-03-07 03:53:00,31.1,28.0,30.26,West,269,0.0,2.0,88,0.00,,---,0.00,VWS V14.01,2013-03-07 08:53:00,
2013-03-07 03:58:00,31.0,28.1,30.26,West,269,1.0,2.0,89,0.00,,---,0.00,VWS V14.01,2013-03-07 08:58:00,
2013-03-07 04:00:00,31.1,28.5,30.28,WSW,253,0.0,3.0,90,0.00,,---,0.00,VWS V14.01,2013-03-07 09:00:00,
2013-03-07 04:03:00,31.0,28.1,30.27,SW,226,0.0,0.0,89,0.00,,---,0.00,VWS V14.01,2013-03-07 09:03:00,
2013-03-07 04:08:00,31.0,28.1,30.27,West,259,1.0,1.0,89,0.00,,---,0.00,VWS V14.01,2013-03-07 09:08:00,
2013-03-07 04:13:00,31.0,28.1,30.27,West,260,0.0,2.0,89,0.00,,---,0.00,VWS V14.01,2013-03-07 09:13:00,
2013-03-07 04:18:00,31.0,28.4,30.27,SW,217,1.0,2.0,90,0.00,,---,0.00,VWS V14.01,2013-03-07 09:18:00,
2013-03-07 04:23:00,31.0,28.4,30.27,WSW,239,0.0,2.0,90,0.00,,---,0.00,VWS V14.01,2013-03-07 09:23:00,
2013-03-07 04:28:00,31.0,28.4,30.27,WSW,250,0.0,2.0,90,0.00,,---,0.00,VWS V14.01,2013-03-07 09:28:00,
2013-03-07 04:30:00,31.3,29.0,30.29,NW,308,0.0,3.0,91,0.00,,---,0.00,VWS V14.01,2013-03-07 09:30:00,
2013-03-07 04:33:00,31.1,28.5,30.28,West,263,0.0,1.0,90,0.00,,---,0.00,VWS V14.01,2013-03-07 09:33:00,
2013-03-07 04:38:00,31.1,28.5,30.28,WSW,252,0.0,3.0,90,0.00,,---,0.00,VWS V14.01,2013-03-07 09:38:00,
2013-03-07 04:43:00,31.1,28.5,30.28,SW,236,0.0,3.0,90,0.00,,---,0.00,VWS V14.01,2013-03-07 09:43:00,
2013-03-07 04:48:00,31.1,28.5,30.28,SW,217,0.0,3.0,90,0.00,,---,0.00,VWS V14.01,2013-03-07 09:48:00,
2013-03-07 04:53:00,31.1,28.5,30.28,SW,219,0.0,3.0,90,0.00,,---,0.00,VWS V14.01,2013-03-07 09:53:00,
2013-03-07 04:58:00,31.1,28.5,30.28,West,281,0.0,3.0,90,0.00,,---,0.00,VWS V14.01,2013-03-07 09:58:00,
2013-03-07 05:00:00,31.6,29.3,30.30,NW,318,1.0,3.0,91,0.00,,---,0.00,VWS V14.01,2013-03-07 10:00:00,
2013-03-07 05:03:00,31.1,28.5,30.28,WSW,253,0.0,1.0,90,0.00,,---,0.00,VWS V14.01,2013-03-07 10:03:00,
2013-03-07 05:08:00,31.1,28.8,30.28,WNW,297,0.0,3.0,91,0.00,,---,0.00,VWS V14.01,2013-03-07 10:08:00,
2013-03-07 05:13:00,31.1,28.8,30.28,NNW,328,0.0,3.0,91,0.00,,---,0.00,VWS V14.01,2013-03-07 10:13:00,
2013-03-07 05:18:00,31.2,28.9,30.28,NW,308,1.0,3.0,91,0.00,,---,0.00,VWS V14.01,2013-03-07 10:18:00,
2013-03-07 05:23:00,31.2,28.9,30.29,NW,323,0.0,3.0,91,0.00,,---,0.00,VWS V14.01,2013-03-07 10:23:00,
2013-03-07 05:28:00,31.3,29.0,30.29,NW,308,1.0,3.0,91,0.00,,---,0.00,VWS V14.01,2013-03-07 10:28:00,
2013-03-07 05:30:00,31.6,29.3,30.30,WNW,290,0.0,4.0,91,0.00,,---,0.00,VWS V14.01,2013-03-07 10:30:00,
2013-03-07 05:34:00,31.4,29.1,30.29,West,273,0.0,3.0,91,0.00,,---,0.00,VWS V14.01,2013-03-07 10:34:00,
2013-03-07 05:38:00,31.4,29.1,30.29,WNW,291,0.0,3.0,91,0.00,,---,0.00,VWS V14.01,2013-03-07 10:38:00,
2013-03-07 05:43:00,31.5,29.2,30.29,NW,307,0.0,3.0,91,0.00,,---,0.00,VWS V14.01,2013-03-07 10:43:00,
2013-03-07 05:48:00,31.5,29.2,30.29,West,280,0.0,3.0,91,0.00,,---,0.00,VWS V14.01,2013-03-07 10:48:00,
2013-03-07 05:53:00,31.6,29.3,30.29,NW,323,2.0,3.0,91,0.00,,---,0.00,VWS V14.01,2013-03-07 10:53:00,
2013-03-07 05:59:00,31.5,29.2,30.29,NW,317,1.0,3.0,91,0.00,,---,0.00,VWS V14.01,2013-03-07 10:59:00,
2013-03-07 06:00:00,31.8,29.2,30.31,West,263,4.0,4.0,90,0.00,,---,0.00,VWS V14.01,2013-03-07 11:00:00,
2013-03-07 06:04:00,31.6,29.3,30.29,NW,318,0.0,1.0,91,0.00,,---,0.00,VWS V14.01,2013-03-07 11:04:00,
2013-03-07 06:09:00,31.6,29.3,30.30,West,259,1.0,3.0,91,0.00,,---,0.00,VWS V14.01,2013-03-07 11:09:00,
2013-03-07 06:14:00,31.6,29.3,30.30,WNW,284,2.0,4.0,91,0.00,,---,0.00,VWS V14.01,2013-03-07 11:14:00,
2013-03-07 06:19:00,31.6,29.3,30.30,NW,317,0.0,4.0,91,0.00,,---,0.00,VWS V14.01,2013-03-07 11:19:00,
2013-03-07 06:24:00,31.6,29.3,30.30,WNW,283,2.0,4.0,91,0.00,,---,0.00,VWS V14.01,2013-03-07 11:24:00,
2013-03-07 06:29:00,31.6,29.3,30.30,WNW,295,0.0,4.0,91,0.00,,---,0.00,VWS V14.01,2013-03-07 11:29:00,
2013-03-07 06:30:00,32.0,29.1,30.31,NW,321,1.0,6.0,89,0.00,,---,0.00,VWS V14.01,2013-03-07 11:30:00,
2013-03-07 06:34:00,31.5,29.2,30.30,WNW,286,0.0,4.0,91,0.00,,---,0.00,VWS V14.01,2013-03-07 11:34:00,
2013-03-07 06:39:00,31.6,29.3,30.30,WNW,300,1.0,4.0,91,0.00,,---,0.00,VWS V14.01,2013-03-07 11:39:00,
2013-03-07 06:44:00,31.7,29.4,30.30,NW,312,0.0,4.0,91,0.00,,---,0.00,VWS V14.01,2013-03-07 11:44:00,
2013-03-07 06:49:00,31.7,29.4,30.30,NW,314,1.0,4.0,91,0.00,,---,0.00,VWS V14.01,2013-03-07 11:49:00,
2013-03-07 06:54:00,31.7,29.4,30.31,NW,304,2.0,4.0,91,0.00,,---,0.00,VWS V14.01,2013-03-07 11:54:00,
2013-03-07 06:59:00,31.7,29.1,30.31,NW,308,1.0,4.0,90,0.00,,---,0.00,VWS V14.01,2013-03-07 11:59:00,
2013-03-07 07:00:00,32.4,29.2,30.32,WNW,302,2.0,7.0,88,0.00,,---,0.00,VWS V14.01,2013-03-07 12:00:00,
2013-03-07 07:04:00,31.8,29.2,30.31,West,276,0.0,5.0,90,0.00,,---,0.00,VWS V14.01,2013-03-07 12:04:00,
2013-03-07 07:09:00,31.8,29.2,30.31,NW,312,2.0,5.0,90,0.00,,---,0.00,VWS V14.01,2013-03-07 12:09:00,
2013-03-07 07:14:00,31.8,29.2,30.31,West,273,1.0,5.0,90,0.00,,---,0.00,VWS V14.01,2013-03-07 12:14:00,
2013-03-07 07:19:00,31.8,29.2,30.31,WNW,297,0.0,6.0,90,0.00,,---,0.00,VWS V14.01,2013-03-07 12:19:00,
2013-03-07 07:24:00,31.8,29.2,30.31,WNW,301,1.0,6.0,90,0.00,,---,0.00,VWS V14.01,2013-03-07 12:24:00,
2013-03-07 07:29:00,32.0,29.4,30.31,NW,311,3.0,6.0,90,0.00,,---,0.00,VWS V14.01,2013-03-07 12:29:00,
2013-03-07 07:30:00,32.9,29.5,30.34,WNW,286,3.0,6.0,87,0.00,,---,0.00,VWS V14.01,2013-03-07 12:30:00,
2013-03-07 07:34:00,32.0,29.1,30.32,NW,321,0.0,2.0,89,0.00,,---,0.00,VWS V14.01,2013-03-07 12:34:00,
2013-03-07 07:39:00,32.0,29.1,30.32,NW,315,1.0,4.0,89,0.00,,---,0.00,VWS V14.01,2013-03-07 12:39:00,
2013-03-07 07:44:00,32.1,29.2,30.32,NW,315,1.0,4.0,89,0.00,,---,0.00,VWS V14.01,2013-03-07 12:44:00,
2013-03-07 07:49:00,32.2,29.3,30.32,NW,322,1.0,5.0,89,0.00,,---,0.00,VWS V14.01,2013-03-07 12:49:00,
2013-03-07 07:54:00,32.2,29.3,30.32,WNW,300,3.0,5.0,89,0.00,,---,0.00,VWS V14.01,2013-03-07 12:54:00,
2013-03-07 07:59:00,32.3,29.1,30.32,NNW,339,3.0,5.0,88,0.00,,---,0.00,VWS V14.01,2013-03-07 12:59:00,
2013-03-07 08:00:00,33.5,29.8,30.35,NW,321,3.0,7.0,86,0.00,,---,0.00,VWS V14.01,2013-03-07 13:00:00,
2013-03-07 08:04:00,32.4,29.2,30.33,NW,305,2.0,5.0,88,0.00,,---,0.00,VWS V14.01,2013-03-07 13:04:00,
2013-03-07 08:09:00,32.5,29.4,30.33,NW,308,3.0,5.0,88,0.00,,---,0.00,VWS V14.01,2013-03-07 13:09:00,
2013-03-07 08:14:00,32.6,29.5,30.33,NW,308,1.0,5.0,88,0.00,,---,0.00,VWS V14.01,2013-03-07 13:14:00,
2013-03-07 08:19:00,32.6,29.2,30.34,WNW,302,1.0,6.0,87,0.00,,---,0.00,VWS V14.01,2013-03-07 13:19:00,
2013-03-07 08:24:00,32.7,29.3,30.34,NW,318,1.0,6.0,87,0.00,,---,0.00,VWS V14.01,2013-03-07 13:24:00,
2013-03-07 08:29:00,32.8,29.4,30.34,NW,309,1.0,6.0,87,0.00,,---,0.00,VWS V14.01,2013-03-07 13:29:00,
2013-03-07 08:30:00,33.9,29.6,30.35,NW,304,6.0,9.0,84,0.00,,---,0.00,VWS V14.01,2013-03-07 13:30:00,
2013-03-07 08:34:00,32.9,29.5,30.34,NNW,330,4.0,7.0,87,0.00,,---,0.00,VWS V14.01,2013-03-07 13:34:00,
2013-03-07 08:39:00,33.1,29.7,30.34,NNW,331,3.0,7.0,87,0.00,,---,0.00,VWS V14.01,2013-03-07 13:39:00,
2013-03-07 08:44:00,33.2,29.8,30.34,NW,316,2.0,7.0,87,0.00,,---,0.00,VWS V14.01,2013-03-07 13:44:00,
2013-03-07 08:49:00,33.3,29.6,30.35,NNW,330,3.0,7.0,86,0.00,,---,0.00,VWS V14.01,2013-03-07 13:49:00,
2013-03-07 08:54:00,33.4,29.7,30.34,NW,304,6.0,7.0,86,0.00,,---,0.00,VWS V14.01,2013-03-07 13:54:00,
2013-03-07 08:59:00,33.4,29.7,30.35,NW,319,4.0,7.0,86,0.00,,---,0.00,VWS V14.01,2013-03-07 13:59:00,
2013-03-07 09:00:00,34.8,30.2,30.35,NW,325,3.0,8.0,83,0.00,,---,0.00,VWS V14.01,2013-03-07 14:00:00,
2013-03-07 09:04:00,33.5,29.8,30.34,NNW,333,4.0,5.0,86,0.00,,---,0.00,VWS V14.01,2013-03-07 14:04:00,
2013-03-07 09:09:00,33.6,29.6,30.35,NW,315,4.0,5.0,85,0.00,,---,0.00,VWS V14.01,2013-03-07 14:09:00,
2013-03-07 09:14:00,33.8,29.8,30.34,NW,320,5.0,6.0,85,0.00,,---,0.00,VWS V14.01,2013-03-07 14:14:00,
2013-03-07 09:19:00,33.8,29.8,30.35,NW,308,4.0,9.0,85,0.00,,---,0.00,VWS V14.01,2013-03-07 14:19:00,
2013-03-07 09:24:00,33.9,29.9,30.35,NW,321,4.0,9.0,85,0.00,,---,0.00,VWS V14.01,2013-03-07 14:24:00,
2013-03-07 09:29:00,33.9,29.6,30.35,NW,312,5.0,9.0,84,0.00,,---,0.00,VWS V14.01,2013-03-07 14:29:00,
2013-03-07 09:30:00,35.7,30.1,30.35,NW,309,7.0,8.0,80,0.00,,---,0.00,VWS V14.01,2013-03-07 14:30:00,
2013-03-07 09:34:00,34.0,29.7,30.35,NW,317,4.0,6.0,84,0.00,,---,0.00,VWS V14.01,2013-03-07 14:34:00,
2013-03-07 09:39:00,34.1,29.8,30.35,NW,315,4.0,8.0,84,0.00,,---,0.00,VWS V14.01,2013-03-07 14:39:00,
2013-03-07 09:45:00,34.3,29.7,30.35,NW,308,4.0,8.0,83,0.00,,---,0.00,VWS V14.01,2013-03-07 14:45:00,
2013-03-07 09:50:00,34.3,29.7,30.35,NW,321,4.0,8.0,83,0.00,,---,0.00,VWS V14.01,2013-03-07 14:50:00,
2013-03-07 09:55:00,34.5,29.9,30.35,NW,308,3.0,8.0,83,0.00,,---,0.00,VWS V14.01,2013-03-07 14:55:00,
2013-03-07 10:00:00,34.7,29.8,30.35,NW,325,2.0,8.0,82,0.00,,---,0.00,VWS V14.01,2013-03-07 15:00:00,
2013-03-07 10:05:00,34.9,30.0,30.35,NNW,332,3.0,6.0,82,0.00,,---,0.00,VWS V14.01,2013-03-07 15:05:00,
2013-03-07 10:10:00,35.1,30.2,30.35,NNW,333,4.0,6.0,82,0.00,,---,0.00,VWS V14.01,2013-03-07 15:10:00,
2013-03-07 10:15:00,35.1,29.9,30.35,NW,318,3.0,8.0,81,0.00,,---,0.00,VWS V14.01,2013-03-07 15:15:00,
2013-03-07 10:20:00,35.3,30.1,30.35,NW,309,1.0,8.0,81,0.00,,---,0.00,VWS V14.01,2013-03-07 15:20:00,
2013-03-07 10:25:00,35.5,30.0,30.35,North,6,5.0,8.0,80,0.00,,---,0.00,VWS V14.01,2013-03-07 15:25:00,
2013-03-07 10:30:00,35.6,30.0,30.35,NW,307,3.0,8.0,80,0.00,,---,0.00,VWS V14.01,2013-03-07 15:30:00,
2013-03-07 10:35:00,35.7,30.1,30.35,WNW,282,3.0,7.0,80,0.00,,---,0.00,VWS V14.01,2013-03-07 15:35:00,
2013-03-07 10:40:00,36.0,30.1,30.36,NW,307,4.0,7.0,79,0.00,,---,0.00,VWS V14.01,2013-03-07 15:40:00,
2013-03-07 10:45:00,35.9,29.7,30.36,NNW,327,3.0,7.0,78,0.00,,---,0.00,VWS V14.01,2013-03-07 15:45:00,
2013-03-07 10:50:00,35.9,29.7,30.36,WNW,302,5.0,8.0,78,0.01,,---,0.01,VWS V14.01,2013-03-07 15:50:00,
2013-03-07 10:55:00,36.0,29.8,30.36,NW,305,2.0,10.0,78,0.01,,---,0.01,VWS V14.01,2013-03-07 15:55:00,
2013-03-07 11:00:00,36.3,30.1,30.36,WNW,300,4.0,10.0,78,0.01,,---,0.01,VWS V14.01,2013-03-07 16:00:00,
2013-03-07 11:05:00,36.3,29.8,30.36,NW,321,6.0,10.0,77,0.01,,---,0.01,VWS V14.01,2013-03-07 16:05:00,
2013-03-07 11:10:00,36.3,29.8,30.36,NNW,335,8.0,10.0,77,0.01,,---,0.01,VWS V14.01,2013-03-07 16:10:00,
2013-03-07 11:15:00,36.5,29.3,30.36,NW,308,4.0,10.0,75,0.01,,---,0.01,VWS V14.01,2013-03-07 16:15:00,
2013-03-07 11:20:00,36.7,29.5,30.36,NW,311,8.0,10.0,75,0.01,,---,0.01,VWS V14.01,2013-03-07 16:20:00,
2013-03-07 11:25:00,36.7,29.5,30.36,WNW,302,4.0,10.0,75,0.01,,---,0.01,VWS V14.01,2013-03-07 16:25:00,
2013-03-07 11:30:00,36.8,29.3,30.36,NNW,335,7.0,10.0,74,0.01,,---,0.01,VWS V14.01,2013-03-07 16:30:00,
2013-03-07 11:35:00,36.9,29.7,30.36,NNW,328,3.0,7.0,75,0.01,,---,0.01,VWS V14.01,2013-03-07 16:35:00,
2013-03-07 11:40:00,37.2,29.7,30.36,NW,313,3.0,7.0,74,0.01,,---,0.01,VWS V14.01,2013-03-07 16:40:00,
2013-03-07 11:46:00,37.4,29.2,30.36,NW,310,3.0,7.0,72,0.01,,---,0.01,VWS V14.01,2013-03-07 16:46:00,
2013-03-07 11:51:00,37.1,28.9,30.36,NW,315,4.0,8.0,72,0.01,,---,0.01,VWS V14.01,2013-03-07 16:51:00,
2013-03-07 11:56:00,37.0,29.2,30.36,NW,307,2.0,8.0,73,0.01,,---,0.01,VWS V14.01,2013-03-07 16:56:00,
2013-03-07 12:00:00,36.9,26.2,30.36,NW,304,4.0,8.0,65,0.00,,---,0.01,VWS V14.01,2013-03-07 17:00:00,
2013-03-07 12:01:00,36.7,28.5,30.36,NW,307,3.0,8.0,72,0.01,,---,0.01,VWS V14.01,2013-03-07 17:01:00,
2013-03-07 12:06:00,36.5,28.7,30.36,NW,315,4.0,6.0,73,0.00,,---,0.01,VWS V14.01,2013-03-07 17:06:00,
2013-03-07 12:11:00,36.4,28.6,30.36,WNW,300,4.0,7.0,73,0.00,,---,0.01,VWS V14.01,2013-03-07 17:11:00,
2013-03-07 12:16:00,36.4,28.6,30.36,West,276,3.0,7.0,73,0.00,,---,0.01,VWS V14.01,2013-03-07 17:16:00,
2013-03-07 12:21:00,36.4,28.2,30.36,NW,304,6.0,8.0,72,0.00,,---,0.01,VWS V14.01,2013-03-07 17:21:00,
2013-03-07 12:26:00,36.5,28.4,30.36,NNW,330,4.0,8.0,72,0.00,,---,0.01,VWS V14.01,2013-03-07 17:26:00,
2013-03-07 12:30:00,36.7,25.3,30.35,North,354,5.0,9.0,63,0.00,,---,0.01,VWS V14.01,2013-03-07 17:30:00,
2013-03-07 12:31:00,36.8,28.3,30.36,NW,312,2.0,8.0,71,0.00,,---,0.01,VWS V14.01,2013-03-07 17:31:00,
2013-03-07 12:36:00,36.8,27.6,30.36,NW,319,5.0,8.0,69,0.00,,---,0.01,VWS V14.01,2013-03-07 17:36:00,
2013-03-07 12:41:00,36.7,27.5,30.36,WNW,284,2.0,8.0,69,0.00,,---,0.01,VWS V14.01,2013-03-07 17:41:00,
2013-03-07 12:46:00,36.8,27.2,30.36,NNW,329,4.0,8.0,68,0.00,,---,0.01,VWS V14.01,2013-03-07 17:46:00,
2013-03-07 12:51:00,36.9,27.3,30.36,NW,307,4.0,8.0,68,0.00,,---,0.01,VWS V14.01,2013-03-07 17:51:00,
2013-03-07 12:56:00,36.8,26.5,30.36,NW,307,7.0,8.0,66,0.00,,---,0.01,VWS V14.01,2013-03-07 17:56:00,
2013-03-07 13:00:00,37.4,24.4,30.34,WNW,302,2.0,9.0,59,0.00,,---,0.01,VWS V14.01,2013-03-07 18:00:00,
2013-03-07 13:01:00,36.9,26.2,30.36,NNW,330,2.0,8.0,65,0.00,,---,0.01,VWS V14.01,2013-03-07 18:01:00,
2013-03-07 13:06:00,37.0,26.3,30.36,WNW,294,3.0,6.0,65,0.00,,---,0.01,VWS V14.01,2013-03-07 18:06:00,
2013-03-07 13:11:00,36.8,26.5,30.35,North,350,4.0,8.0,66,0.00,,---,0.01,VWS V14.01,2013-03-07 18:11:00,
2013-03-07 13:16:00,36.8,26.5,30.35,NW,311,3.0,8.0,66,0.00,,---,0.01,VWS V14.01,2013-03-07 18:16:00,
2013-03-07 13:21:00,36.9,26.6,30.35,West,269,2.0,8.0,66,0.00,,---,0.01,VWS V14.01,2013-03-07 18:21:00,
2013-03-07 13:26:00,36.8,25.8,30.35,WNW,298,7.0,8.0,64,0.00,,---,0.01,VWS V14.01,2013-03-07 18:26:00,
2013-03-07 13:30:00,37.2,24.2,30.34,NW,317,5.0,9.0,59,0.00,,---,0.01,VWS V14.01,2013-03-07 18:30:00,
2013-03-07 13:31:00,36.7,25.3,30.35,NNW,343,5.0,9.0,63,0.00,,---,0.01,VWS V14.01,2013-03-07 18:31:00,
2013-03-07 13:36:00,36.7,24.9,30.35,NNW,330,3.0,9.0,62,0.00,,---,0.01,VWS V14.01,2013-03-07 18:36:00,
2013-03-07 13:41:00,37.0,25.2,30.34,NW,323,3.0,9.0,62,0.00,,---,0.01,VWS V14.01,2013-03-07 18:41:00,
2013-03-07 13:46:00,37.1,24.5,30.34,NW,307,2.0,9.0,60,0.00,,---,0.01,VWS V14.01,2013-03-07 18:46:00,
2013-03-07 13:51:00,37.1,24.5,30.34,NNW,332,5.0,9.0,60,0.00,,---,0.01,VWS V14.01,2013-03-07 18:51:00,
2013-03-07 13:57:00,37.3,24.7,30.34,WNW,300,2.0,9.0,60,0.00,,---,0.01,VWS V14.01,2013-03-07 18:57:00,
2013-03-07 14:00:00,37.5,22.8,30.36,WNW,300,4.0,11.0,55,0.00,,---,0.01,VWS V14.01,2013-03-07 19:00:00,
2013-03-07 14:02:00,37.4,24.4,30.34,WNW,302,2.0,9.0,59,0.00,,---,0.01,VWS V14.01,2013-03-07 19:02:00,
2013-03-07 14:07:00,37.5,24.5,30.34,NW,313,7.0,7.0,59,0.00,,---,0.01,VWS V14.01,2013-03-07 19:07:00,
2013-03-07 14:12:00,37.4,24.0,30.34,NW,313,4.0,7.0,58,0.00,,---,0.01,VWS V14.01,2013-03-07 19:12:00,
2013-03-07 14:17:00,37.5,24.1,30.35,NW,321,4.0,7.0,58,0.00,,---,0.01,VWS V14.01,2013-03-07 19:17:00,
2013-03-07 14:22:00,37.2,23.8,30.35,WNW,302,3.0,9.0,58,0.00,,---,0.01,VWS V14.01,2013-03-07 19:22:00,
2013-03-07 14:27:00,37.2,23.8,30.35,NW,314,3.0,9.0,58,0.00,,---,0.01,VWS V14.01,2013-03-07 19:27:00,
2013-03-07 14:30:00,38.9,23.2,30.36,NW,316,6.0,10.0,53,0.00,,---,0.01,VWS V14.01,2013-03-07 19:30:00,
2013-03-07 14:32:00,37.2,24.2,30.35,NNW,330,4.0,5.0,59,0.00,,---,0.01,VWS V14.01,2013-03-07 19:32:00,
2013-03-07 14:37:00,37.0,24.0,30.35,NNW,330,3.0,11.0,59,0.00,,---,0.01,VWS V14.01,2013-03-07 19:37:00,
2013-03-07 14:42:00,37.0,24.0,30.35,SW,231,3.0,11.0,59,0.00,,---,0.01,VWS V14.01,2013-03-07 19:42:00,
2013-03-07 14:47:00,37.1,23.7,30.35,NW,312,2.0,11.0,58,0.00,,---,0.01,VWS V14.01,2013-03-07 19:47:00,
2013-03-07 14:52:00,37.4,23.1,30.35,WNW,294,2.0,11.0,56,0.00,,---,0.01,VWS V14.01,2013-03-07 19:52:00,
2013-03-07 14:57:00,37.6,23.3,30.36,NW,326,1.0,11.0,56,0.00,,---,0.01,VWS V14.01,2013-03-07 19:57:00,
2013-03-07 15:00:00,38.4,22.8,30.36,NW,324,10.0,10.0,53,0.00,,---,0.01,VWS V14.01,2013-03-07 20:00:00,
2013-03-07 15:02:00,37.5,22.8,30.36,NW,316,5.0,5.0,55,0.00,,---,0.01,VWS V14.01,2013-03-07 20:02:00,
2013-03-07 15:07:00,37.1,22.9,30.36,NW,321,3.0,7.0,56,0.00,,---,0.01,VWS V14.01,2013-03-07 20:07:00,
2013-03-07 15:12:00,37.6,22.5,30.36,NW,307,6.0,7.0,54,0.00,,---,0.01,VWS V14.01,2013-03-07 20:12:00,
2013-03-07 15:17:00,38.2,23.5,30.35,West,260,3.0,7.0,55,0.00,,---,0.01,VWS V14.01,2013-03-07 20:17:00,
2013-03-07 15:22:00,38.7,23.1,30.36,NNW,328,5.0,7.0,53,0.00,,---,0.01,VWS V14.01,2013-03-07 20:22:00,
2013-03-07 15:27:00,38.8,23.1,30.36,NNW,327,4.0,8.0,53,0.00,,---,0.01,VWS V14.01,2013-03-07 20:27:00,
2013-03-07 15:30:00,36.9,22.7,30.36,NNW,327,4.0,10.0,56,0.00,,---,0.01,VWS V14.01,2013-03-07 20:30:00,
2013-03-07 15:32:00,38.8,23.1,30.36,NNW,329,2.0,6.0,53,0.00,,---,0.01,VWS V14.01,2013-03-07 20:32:00,
2013-03-07 15:37:00,38.7,23.1,30.36,WNW,302,3.0,7.0,53,0.00,,---,0.01,VWS V14.01,2013-03-07 20:37:00,
2013-03-07 15:42:00,38.4,22.8,30.36,WNW,294,3.0,7.0,53,0.00,,---,0.01,VWS V14.01,2013-03-07 20:42:00,
2013-03-07 15:47:00,38.3,22.7,30.36,NW,325,3.0,8.0,53,0.00,,---,0.01,VWS V14.01,2013-03-07 20:47:00,
2013-03-07 15:52:00,37.9,23.2,30.36,WNW,296,2.0,8.0,55,0.00,,---,0.01,VWS V14.01,2013-03-07 20:52:00,
2013-03-07 15:57:00,38.5,23.3,30.36,NNW,335,6.0,8.0,54,0.00,,---,0.01,VWS V14.01,2013-03-07 20:57:00,
2013-03-07 16:00:00,36.5,22.7,30.36,WNW,298,2.0,10.0,57,0.00,,---,0.01,VWS V14.01,2013-03-07 21:00:00,
2013-03-07 16:02:00,38.2,22.6,30.36,NW,307,6.0,10.0,53,0.00,,---,0.01,VWS V14.01,2013-03-07 21:02:00,
2013-03-07 16:07:00,37.5,22.8,30.36,WNW,301,3.0,10.0,55,0.00,,---,0.01,VWS V14.01,2013-03-07 21:07:00,
2013-03-07 16:12:00,37.1,22.4,30.36,NW,321,2.0,10.0,55,0.00,,---,0.01,VWS V14.01,2013-03-07 21:12:00,
2013-03-07 16:17:00,36.9,23.1,30.36,WNW,283,1.0,10.0,57,0.00,,---,0.01,VWS V14.01,2013-03-07 21:17:00,
2013-03-07 16:23:00,37.2,23.0,30.36,WNW,292,2.0,10.0,56,0.00,,---,0.01,VWS V14.01,2013-03-07 21:23:00,
2013-03-07 16:28:00,37.0,22.8,30.36,NW,305,0.0,10.0,56,0.00,,---,0.01,VWS V14.01,2013-03-07 21:28:00,
2013-03-07 16:30:00,35.9,22.6,30.36,NW,325,4.0,6.0,58,0.00,,---,0.01,VWS V14.01,2013-03-07 21:30:00,
2013-03-07 16:33:00,36.8,22.6,30.36,NNW,331,5.0,5.0,56,0.00,,---,0.01,VWS V14.01,2013-03-07 21:33:00,
2013-03-07 16:38:00,36.5,22.7,30.36,NW,316,5.0,10.0,57,0.00,,---,0.01,VWS V14.01,2013-03-07 21:38:00,
2013-03-07 16:43:00,36.5,22.3,30.36,NW,308,6.0,10.0,56,0.00,,---,0.01,VWS V14.01,2013-03-07 21:43:00,
2013-03-07 16:48:00,36.4,22.2,30.36,NNW,345,4.0,10.0,56,0.00,,---,0.01,VWS V14.01,2013-03-07 21:48:00,
2013-03-07 16:53:00,36.7,22.5,30.36,WNW,300,0.0,10.0,56,0.00,,---,0.01,VWS V14.01,2013-03-07 21:53:00,
2013-03-07 16:58:00,36.6,22.4,30.36,NNW,335,3.0,10.0,56,0.00,,---,0.01,VWS V14.01,2013-03-07 21:58:00,
2013-03-07 17:00:00,35.5,22.6,30.38,NNW,329,4.0,8.0,59,0.00,,---,0.01,VWS V14.01,2013-03-07 22:00:00,
2013-03-07 17:03:00,36.6,22.8,30.36,NNW,329,3.0,3.0,57,0.00,,---,0.01,VWS V14.01,2013-03-07 22:03:00,
2013-03-07 17:08:00,36.5,22.7,30.36,NW,308,2.0,4.0,57,0.00,,---,0.01,VWS V14.01,2013-03-07 22:08:00,
2013-03-07 17:13:00,36.4,23.0,30.36,NW,304,2.0,4.0,58,0.00,,---,0.01,VWS V14.01,2013-03-07 22:13:00,
2013-03-07 17:18:00,36.2,22.5,30.36,NW,326,3.0,5.0,57,0.00,,---,0.01,VWS V14.01,2013-03-07 22:18:00,
2013-03-07 17:23:00,36.0,22.7,30.36,WNW,296,2.0,5.0,58,0.00,,---,0.01,VWS V14.01,2013-03-07 22:23:00,
2013-03-07 17:28:00,36.0,22.7,30.36,NW,316,3.0,5.0,58,0.00,,---,0.01,VWS V14.01,2013-03-07 22:28:00,
2013-03-07 17:30:00,35.1,23.0,30.38,NW,314,2.0,7.0,61,0.00,,---,0.01,VWS V14.01,2013-03-07 22:30:00,
2013-03-07 17:33:00,35.9,22.6,30.36,WNW,288,2.0,4.0,58,0.00,,---,0.01,VWS V14.01,2013-03-07 22:33:00,
2013-03-07 17:38:00,35.9,23.0,30.37,NW,310,3.0,5.0,59,0.00,,---,0.01,VWS V14.01,2013-03-07 22:38:00,
2013-03-07 17:43:00,35.8,22.9,30.37,NW,312,3.0,5.0,59,0.00,,---,0.01,VWS V14.01,2013-03-07 22:43:00,
2013-03-07 17:48:00,35.7,22.8,30.37,NNW,331,5.0,6.0,59,0.00,,---,0.01,VWS V14.01,2013-03-07 22:48:00,
2013-03-07 17:53:00,35.6,23.1,30.37,WNW,298,6.0,7.0,60,0.00,,---,0.01,VWS V14.01,2013-03-07 22:53:00,
2013-03-07 17:58:00,35.5,23.0,30.38,NW,319,3.0,8.0,60,0.00,,---,0.01,VWS V14.01,2013-03-07 22:58:00,
2013-03-07 18:00:00,34.6,23.3,30.39,NW,315,4.0,7.0,63,0.00,,---,0.01,VWS V14.01,2013-03-07 23:00:00,
2013-03-07 18:03:00,35.5,23.0,30.37,NNW,335,3.0,6.0,60,0.00,,---,0.01,VWS V14.01,2013-03-07 23:03:00,
2013-03-07 18:08:00,35.4,23.3,30.37,NW,323,0.0,6.0,61,0.00,,---,0.01,VWS V14.01,2013-03-07 23:08:00,
2013-03-07 18:13:00,35.3,23.2,30.38,NW,311,3.0,6.0,61,0.00,,---,0.01,VWS V14.01,2013-03-07 23:13:00,
2013-03-07 18:18:00,35.3,22.8,30.38,NW,312,3.0,6.0,60,0.00,,---,0.01,VWS V14.01,2013-03-07 23:18:00,
2013-03-07 18:23:00,35.2,23.5,30.38,WNW,291,3.0,6.0,62,0.00,,---,0.01,VWS V14.01,2013-03-07 23:23:00,
2013-03-07 18:28:00,35.1,23.0,30.38,NW,323,2.0,7.0,61,0.00,,---,0.01,VWS V14.01,2013-03-07 23:28:00,
2013-03-07 18:30:00,34.5,22.5,30.39,NW,317,3.0,7.0,61,0.00,,---,0.01,VWS V14.01,2013-03-07 23:30:00,
2013-03-07 18:33:00,35.1,23.0,30.39,WNW,300,4.0,4.0,61,0.00,,---,0.01,VWS V14.01,2013-03-07 23:33:00,
2013-03-07 18:38:00,35.0,22.9,30.39,NW,314,2.0,7.0,61,0.00,,---,0.01,VWS V14.01,2013-03-07 23:38:00,
2013-03-07 18:43:00,35.0,22.9,30.39,NW,312,0.0,7.0,61,0.00,,---,0.01,VWS V14.01,2013-03-07 23:43:00,
2013-03-07 18:48:00,34.9,23.6,30.39,WNW,288,0.0,7.0,63,0.00,,---,0.01,VWS V14.01,2013-03-07 23:48:00,
2013-03-07 18:53:00,34.8,23.1,30.39,NW,323,1.0,7.0,62,0.00,,---,0.01,VWS V14.01,2013-03-07 23:53:00,
2013-03-07 18:58:00,34.7,23.4,30.39,West,274,1.0,7.0,63,0.00,,---,0.01,VWS V14.01,2013-03-07 23:58:00,
2013-03-07 19:00:00,34.1,22.8,30.39,NNW,336,0.0,4.0,63,0.00,,---,0.01,VWS V14.01,2013-03-08 00:00:00,
2013-03-07 19:03:00,34.6,22.9,30.39,NW,304,2.0,4.0,62,0.00,,---,0.01,VWS V14.01,2013-03-08 00:03:00,
2013-03-07 19:08:00,34.7,22.6,30.39,NW,323,1.0,5.0,61,0.00,,---,0.01,VWS V14.01,2013-03-08 00:08:00,
2013-03-07 19:13:00,34.6,22.9,30.39,NW,323,2.0,5.0,62,0.00,,---,0.01,VWS V14.01,2013-03-08 00:13:00,
2013-03-07 19:18:00,34.7,22.6,30.39,NW,312,4.0,7.0,61,0.00,,---,0.01,VWS V14.01,2013-03-08 00:18:00,
2013-03-07 19:23:00,34.7,23.0,30.40,NW,312,2.0,7.0,62,0.00,,---,0.01,VWS V14.01,2013-03-08 00:23:00,
2013-03-07 19:28:00,34.5,22.8,30.39,NW,316,3.0,7.0,62,0.00,,---,0.01,VWS V14.01,2013-03-08 00:28:00,
2013-03-07 19:30:00,33.3,23.9,30.40,NW,321,0.0,4.0,68,0.00,,---,0.01,VWS V14.01,2013-03-08 00:30:00,
2013-03-07 19:33:00,34.5,22.5,30.39,NW,316,3.0,3.0,61,0.00,,---,0.01,VWS V14.01,2013-03-08 00:33:00,
2013-03-07 19:38:00,34.5,22.5,30.39,NW,316,2.0,4.0,61,0.00,,---,0.01,VWS V14.01,2013-03-08 00:38:00,
2013-03-07 19:43:00,34.4,22.7,30.39,NW,311,0.0,4.0,62,0.00,,---,0.01,VWS V14.01,2013-03-08 00:43:00,
2013-03-07 19:48:00,34.3,22.6,30.39,NW,323,0.0,4.0,62,0.00,,---,0.01,VWS V14.01,2013-03-08 00:48:00,
2013-03-07 19:54:00,34.0,22.7,30.39,NW,318,2.0,4.0,63,0.00,,---,0.01,VWS V14.01,2013-03-08 00:54:00,
2013-03-07 19:59:00,34.1,22.5,30.39,NNW,335,0.0,4.0,62,0.00,,---,0.01,VWS V14.01,2013-03-08 00:59:00,
2013-03-07 20:00:00,33.3,25.3,30.40,NW,317,0.0,1.0,72,0.00,,---,0.01,VWS V14.01,2013-03-08 01:00:00,
2013-03-07 20:04:00,34.0,23.1,30.39,NNW,335,0.0,0.0,64,0.00,,---,0.01,VWS V14.01,2013-03-08 01:04:00,
2013-03-07 20:09:00,33.7,22.8,30.39,NNW,336,0.0,0.0,64,0.00,,---,0.01,VWS V14.01,2013-03-08 01:09:00,
2013-03-07 20:14:00,33.5,22.6,30.39,NNW,336,0.0,0.0,64,0.00,,---,0.01,VWS V14.01,2013-03-08 01:14:00,
2013-03-07 20:19:00,33.3,23.2,30.40,NW,316,1.0,2.0,66,0.00,,---,0.01,VWS V14.01,2013-03-08 01:19:00,
2013-03-07 20:24:00,33.1,23.4,30.40,NW,316,0.0,2.0,67,0.00,,---,0.01,VWS V14.01,2013-03-08 01:24:00,
2013-03-07 20:29:00,33.1,23.7,30.40,NW,321,3.0,4.0,68,0.00,,---,0.01,VWS V14.01,2013-03-08 01:29:00,
2013-03-07 20:30:00,33.1,26.4,30.40,NW,309,1.0,2.0,76,0.00,,---,0.01,VWS V14.01,2013-03-08 01:30:00,
2013-03-07 20:34:00,33.3,23.9,30.40,NW,321,0.0,1.0,68,0.00,,---,0.01,VWS V14.01,2013-03-08 01:34:00,
2013-03-07 20:39:00,33.4,24.3,30.40,NW,321,0.0,1.0,69,0.00,,---,0.01,VWS V14.01,2013-03-08 01:39:00,
2013-03-07 20:44:00,33.4,24.3,30.40,NNW,333,0.0,1.0,69,0.00,,---,0.01,VWS V14.01,2013-03-08 01:44:00,
2013-03-07 20:49:00,33.3,24.6,30.40,NNW,333,0.0,1.0,70,0.00,,---,0.01,VWS V14.01,2013-03-08 01:49:00,
2013-03-07 20:54:00,33.3,24.9,30.40,NW,321,0.0,1.0,71,0.00,,---,0.01,VWS V14.01,2013-03-08 01:54:00,
2013-03-07 20:59:00,33.3,24.9,30.40,NW,317,1.0,1.0,71,0.00,,---,0.01,VWS V14.01,2013-03-08 01:59:00,
2013-03-07 21:00:00,32.8,26.4,30.40,NNW,335,1.0,2.0,77,0.00,,---,0.01,VWS V14.01,2013-03-08 02:00:00,
2013-03-07 21:04:00,33.3,25.3,30.40,NW,318,0.0,0.0,72,0.00,,---,0.01,VWS V14.01,2013-03-08 02:04:00,
2013-03-07 21:09:00,33.1,25.4,30.40,NW,318,0.0,0.0,73,0.00,,---,0.01,VWS V14.01,2013-03-08 02:09:00,
2013-03-07 21:14:00,33.1,26.0,30.40,NW,312,0.0,2.0,75,0.00,,---,0.01,VWS V14.01,2013-03-08 02:14:00,
2013-03-07 21:19:00,33.2,26.1,30.40,NW,312,0.0,2.0,75,0.00,,---,0.01,VWS V14.01,2013-03-08 02:19:00,
2013-03-07 21:24:00,33.1,26.0,30.40,NW,308,2.0,2.0,75,0.00,,---,0.01,VWS V14.01,2013-03-08 02:24:00,
2013-03-07 21:29:00,33.1,26.4,30.40,NW,308,0.0,2.0,76,0.00,,---,0.01,VWS V14.01,2013-03-08 02:29:00,
2013-03-07 21:30:00,32.6,26.8,30.40,WNW,294,0.0,3.0,79,0.00,,---,0.01,VWS V14.01,2013-03-08 02:30:00,
2013-03-07 21:34:00,33.1,26.4,30.40,NW,309,0.0,1.0,76,0.00,,---,0.01,VWS V14.01,2013-03-08 02:34:00,
2013-03-07 21:39:00,33.0,26.6,30.40,NW,310,0.0,2.0,77,0.00,,---,0.01,VWS V14.01,2013-03-08 02:39:00,
2013-03-07 21:44:00,32.8,26.4,30.40,NW,311,0.0,2.0,77,0.00,,---,0.01,VWS V14.01,2013-03-08 02:44:00,
2013-03-07 21:49:00,32.9,26.5,30.40,NW,310,0.0,2.0,77,0.00,,---,0.01,VWS V14.01,2013-03-08 02:49:00,
2013-03-07 21:54:00,32.9,26.5,30.40,NNW,333,2.0,2.0,77,0.00,,---,0.01,VWS V14.01,2013-03-08 02:54:00,
2013-03-07 21:59:00,32.8,26.4,30.40,NW,307,0.0,2.0,77,0.00,,---,0.01,VWS V14.01,2013-03-08 02:59:00,
2013-03-07 22:00:00,32.2,26.7,30.40,NW,308,2.0,5.0,80,0.00,,---,0.01,VWS V14.01,2013-03-08 03:00:00,
2013-03-07 22:04:00,32.8,26.4,30.40,NW,321,0.0,3.0,77,0.00,,---,0.01,VWS V14.01,2013-03-08 03:04:00,
2013-03-07 22:09:00,32.8,26.4,30.40,NW,313,1.0,3.0,77,0.00,,---,0.01,VWS V14.01,2013-03-08 03:09:00,
2013-03-07 22:14:00,32.8,26.7,30.40,NW,326,1.0,3.0,78,0.00,,---,0.01,VWS V14.01,2013-03-08 03:14:00,
2013-03-07 22:19:00,32.7,26.6,30.40,NW,307,1.0,3.0,78,0.00,,---,0.01,VWS V14.01,2013-03-08 03:19:00,
2013-03-07 22:24:00,32.7,26.6,30.40,WNW,297,1.0,3.0,78,0.00,,---,0.01,VWS V14.01,2013-03-08 03:24:00,
2013-03-07 22:29:00,32.6,26.8,30.40,NW,319,0.0,3.0,79,0.00,,---,0.01,VWS V14.01,2013-03-08 03:29:00,
2013-03-07 22:30:00,31.6,26.5,30.40,NW,307,1.0,4.0,81,0.00,,---,0.01,VWS V14.01,2013-03-08 03:30:00,
2013-03-07 22:34:00,32.6,26.8,30.40,NW,312,0.0,3.0,79,0.00,,---,0.01,VWS V14.01,2013-03-08 03:34:00,
2013-03-07 22:39:00,32.5,26.7,30.40,NW,321,1.0,3.0,79,0.00,,---,0.01,VWS V14.01,2013-03-08 03:39:00,
2013-03-07 22:45:00,32.4,26.6,30.40,NW,319,4.0,4.0,79,0.00,,---,0.01,VWS V14.01,2013-03-08 03:45:00,
2013-03-07 22:50:00,32.4,26.6,30.40,NW,312,1.0,5.0,79,0.00,,---,0.01,VWS V14.01,2013-03-08 03:50:00,
2013-03-07 22:55:00,32.3,26.8,30.40,NW,316,3.0,5.0,80,0.00,,---,0.01,VWS V14.01,2013-03-08 03:55:00,
2013-03-07 23:00:00,32.2,26.7,30.40,NW,309,1.0,5.0,80,0.00,,---,0.01,VWS V14.01,2013-03-08 04:00:00,
2013-03-07 23:05:00,32.2,26.7,30.40,NNW,327,1.0,2.0,80,0.00,,---,0.01,VWS V14.01,2013-03-08 04:05:00,
2013-03-07 23:10:00,32.1,26.6,30.40,NW,313,1.0,4.0,80,0.00,,---,0.01,VWS V14.01,2013-03-08 04:10:00,
2013-03-07 23:15:00,32.0,26.5,30.40,NW,326,1.0,4.0,80,0.00,,---,0.01,VWS V14.01,2013-03-08 04:15:00,
2013-03-07 23:20:00,31.8,26.4,30.40,WNW,301,0.0,4.0,80,0.00,,---,0.01,VWS V14.01,2013-03-08 04:20:00,
2013-03-07 23:25:00,31.7,26.5,30.40,NW,312,1.0,4.0,81,0.00,,---,0.01,VWS V14.01,2013-03-08 04:25:00,
2013-03-07 23:30:00,31.6,26.5,30.40,NNW,328,2.0,4.0,81,0.00,,---,0.01,VWS V14.01,2013-03-08 04:30:00,
2013-03-07 23:35:00,31.4,26.2,30.40,North,349,1.0,2.0,81,0.00,,---,0.01,VWS V14.01,2013-03-08 04:35:00,
2013-03-07 23:40:00,31.2,26.1,30.40,NNW,342,0.0,2.0,81,0.00,,---,0.01,VWS V14.01,2013-03-08 04:40:00,
2013-03-07 23:45:00,30.8,25.7,30.40,NNW,342,0.0,2.0,81,0.00,,---,0.01,VWS V14.01,2013-03-08 04:45:00,
2013-03-07 23:50:00,30.4,25.6,30.41,NNW,340,0.0,2.0,82,0.00,,---,0.01,VWS V14.01,2013-03-08 04:50:00,
2013-03-07 23:55:00,29.9,25.1,30.41,NNW,340,0.0,2.0,82,0.00,,---,0.01,VWS V14.01,2013-03-08 04:55:00,